Time;durP1;ratioP1;P1;durP2;ratioP2;P2;SDS_P1;SDS_P2;PMS_P1;PMS_P2;Temp;Humidity;BMP_temperature;BMP_pressure;BME280_temperature;BME280_humidity;BME280_pressure;Samples;Min_cycle;Max_cycle;Signal;HPM_P1;HPM_P2
2022/05/16 00:00:08;;;;;;;5.18;4.93;;;;;;;16.16;61.33;100912.09;6069724;23;20018;-72
2022/05/16 00:02:35;;;;;;;6.00;5.70;;;;;;;16.37;61.69;100951.22;6068683;23;20038;-72
2022/05/16 00:05:02;;;;;;;5.30;5.10;;;;;;;16.37;61.40;100951.22;6056351;23;20452;-74
2022/05/16 00:07:28;;;;;;;6.32;6.03;;;;;;;16.19;61.15;100937.50;6085502;23;20017;-73
2022/05/16 00:09:55;;;;;;;5.20;5.00;;;;;;;16.30;60.83;100951.66;6029647;23;20006;-74
2022/05/16 00:12:21;;;;;;;5.47;5.18;;;;;;;16.30;61.26;100964.91;6080454;23;20014;-73
2022/05/16 00:14:48;;;;;;;5.00;4.80;;;;;;;16.27;61.12;100948.38;6019709;23;20014;-74
2022/05/16 00:17:14;;;;;;;4.95;4.65;;;;;;;16.31;61.20;100950.69;6035036;23;20023;-75
2022/05/16 00:19:41;;;;;;;6.22;5.93;;;;;;;16.30;61.26;100954.31;6045266;23;20380;-72
2022/05/16 00:22:10;;;;;;;5.55;5.25;;;;;;;15.66;61.84;100848.56;6026988;23;20692;-73
2022/05/16 00:24:39;;;;;;;6.07;5.78;;;;;;;16.20;61.70;100939.22;6051822;23;20026;-75
2022/05/16 00:27:06;;;;;;;5.40;5.20;;;;;;;16.31;61.44;100948.03;6065355;23;20046;-74
2022/05/16 00:29:35;;;;;;;6.50;6.20;;;;;;;16.31;60.63;100945.38;6025638;23;20036;-74
2022/05/16 00:32:02;;;;;;;5.10;4.90;;;;;;;15.86;60.54;100865.69;6055519;23;20022;-72
2022/05/16 00:34:28;;;;;;;5.65;5.38;;;;;;;16.26;60.72;100923.72;6027267;23;20018;-72
2022/05/16 00:36:54;;;;;;;5.25;5.05;;;;;;;16.13;60.40;100910.50;6058563;23;20046;-73
2022/05/16 00:39:21;;;;;;;5.32;5.03;;;;;;;16.24;60.43;100933.56;6023351;23;20420;-72
2022/05/16 00:41:50;;;;;;;4.65;4.45;;;;;;;16.19;61.37;100935.69;6097381;23;20040;-73
2022/05/16 00:44:19;;;;;;;4.88;4.68;;;;;;;16.22;61.02;100935.47;6044255;23;20014;-74
2022/05/16 00:46:47;;;;;;;5.10;4.85;;;;;;;16.20;61.25;100932.09;6061334;23;21156;-74
2022/05/16 00:49:20;;;;;;;5.35;5.05;;;;;;;15.87;61.26;100893.84;6006538;23;20102;-73
2022/05/16 00:51:52;;;;;;;5.20;5.00;;;;;;;16.11;61.69;100932.75;6043641;23;20037;-72
2022/05/16 00:54:23;;;;;;;4.72;4.53;;;;;;;16.06;61.94;100926.94;6053178;23;20081;-74
2022/05/16 00:56:53;;;;;;;5.45;5.25;;;;;;;15.98;63.09;100930.16;6024322;23;20384;-72
2022/05/16 00:59:23;;;;;;;4.90;4.70;;;;;;;15.68;63.31;100896.91;6045835;23;20010;-74
2022/05/16 01:04:48;;;;;;;6.28;5.97;;;;;;;15.49;63.14;100862.97;6051566;23;20003;-74
2022/05/16 01:07:26;;;;;;;5.10;4.80;;;;;;;15.44;62.28;100845.75;6062046;23;20023;-73
2022/05/16 01:09:53;;;;;;;5.15;4.95;;;;;;;15.59;63.09;100888.78;6033562;23;20011;-73
2022/05/16 01:12:24;;;;;;;5.13;4.93;;;;;;;15.51;62.69;100866.34;6062342;23;20582;-72
2022/05/16 01:14:54;;;;;;;5.28;4.97;;;;;;;15.70;63.27;100902.13;6047220;23;20354;-74
2022/05/16 01:17:21;;;;;;;5.00;4.80;;;;;;;15.69;63.37;100911.00;6007346;23;20354;-72
2022/05/16 01:19:49;;;;;;;5.10;4.90;;;;;;;15.72;63.72;100921.38;6047879;23;20750;-74
2022/05/16 01:22:28;;;;;;;5.57;5.18;;;;;;;15.33;63.65;100865.00;6071725;23;20018;-74
2022/05/16 01:24:58;;;;;;;5.18;4.97;;;;;;;15.54;63.82;100911.13;6024450;23;20019;-72
2022/05/16 01:27:24;;;;;;;5.97;5.70;;;;;;;15.62;64.00;100933.56;6052885;23;20105;-73
2022/05/16 01:29:51;;;;;;;5.15;4.95;;;;;;;15.14;64.04;100855.69;6027319;23;20031;-73
2022/05/16 01:32:18;;;;;;;5.30;5.10;;;;;;;15.42;64.63;100909.31;6055567;23;20006;-72
2022/05/16 01:34:44;;;;;;;5.00;4.80;;;;;;;15.28;64.87;100893.56;6034234;23;20386;-74
2022/05/16 01:37:12;;;;;;;5.18;4.95;;;;;;;15.53;64.08;100927.09;6045755;23;20028;-74
2022/05/16 01:39:38;;;;;;;6.35;6.05;;;;;;;15.35;64.34;100900.09;6042972;23;20023;-74
2022/05/16 01:42:05;;;;;;;4.88;4.68;;;;;;;15.61;63.99;100926.56;6041897;23;20413;-74
2022/05/16 01:44:31;;;;;;;6.72;6.32;;;;;;;15.63;63.69;100922.84;6056447;23;20472;-75
2022/05/16 01:46:58;;;;;;;5.10;4.88;;;;;;;15.65;64.38;100926.22;6062744;23;20022;-71
2022/05/16 01:49:24;;;;;;;5.38;5.07;;;;;;;15.29;63.70;100866.16;6028488;23;20702;-72
2022/05/16 01:51:50;;;;;;;5.22;4.95;;;;;;;15.43;63.77;100889.84;6048363;23;20030;-75
2022/05/16 01:54:17;;;;;;;4.70;4.50;;;;;;;15.59;64.09;100926.66;6052368;23;20026;-73
2022/05/16 01:56:44;;;;;;;5.05;4.78;;;;;;;15.26;64.14;100866.38;6017841;23;20021;-71
2022/05/16 01:59:11;;;;;;;5.18;4.88;;;;;;;15.61;65.17;100918.63;6029920;23;20022;-73
2022/05/16 02:01:37;;;;;;;4.68;4.47;;;;;;;15.15;64.55;100840.66;6014930;23;20477;-72
2022/05/16 02:04:04;;;;;;;5.13;4.57;;;;;;;15.56;64.74;100911.84;6053769;23;20033;-72
2022/05/16 02:06:31;;;;;;;6.20;5.90;;;;;;;15.32;64.90;100863.31;6049639;23;20373;-73
2022/05/16 02:09:00;;;;;;;5.53;5.22;;;;;;;15.62;64.23;100910.59;6030289;23;20026;-73
2022/05/16 02:11:26;;;;;;;5.50;5.30;;;;;;;15.51;64.40;100894.59;6056935;23;20701;-71
2022/05/16 02:13:52;;;;;;;4.80;4.60;;;;;;;15.52;64.71;100894.50;6057794;23;20263;-72
2022/05/16 02:16:19;;;;;;;4.90;4.70;;;;;;;14.56;64.78;100748.72;6031406;23;20539;-73
2022/05/16 02:18:45;;;;;;;5.57;5.32;;;;;;;15.67;64.62;100897.84;6060749;23;20037;-74
2022/05/16 02:26:46;;;;;;;5.30;5.10;;;;;;;15.10;65.10;100814.56;6043588;23;20486;-72
2022/05/16 02:29:15;;;;;;;5.60;5.30;;;;;;;15.47;65.42;100875.44;6027795;23;20117;-74
2022/05/16 02:31:42;;;;;;;4.90;4.70;;;;;;;15.14;65.73;100833.72;6049089;23;20037;-71
2022/05/16 02:34:08;;;;;;;4.88;4.63;;;;;;;15.11;66.18;100834.78;6017958;23;20026;-70
2022/05/16 02:36:34;;;;;;;4.80;4.60;;;;;;;15.38;66.29;100873.47;6028271;23;20015;-74
2022/05/16 02:39:01;;;;;;;4.68;4.47;;;;;;;14.92;65.67;100805.28;6045859;23;20019;-72
2022/05/16 02:41:27;;;;;;;6.15;5.85;;;;;;;15.34;66.91;100877.28;6024468;23;20010;-73
2022/05/16 02:43:54;;;;;;;4.80;4.60;;;;;;;15.37;66.02;100863.81;6058834;23;20018;-73
2022/05/16 02:46:20;;;;;;;5.15;4.95;;;;;;;15.35;66.61;100869.25;6057621;23;20248;-72
2022/05/16 02:48:47;;;;;;;4.90;4.70;;;;;;;15.09;66.51;100817.31;6020431;23;20589;-74
2022/05/16 02:51:13;;;;;;;4.80;4.60;;;;;;;14.82;66.72;100780.44;6053993;23;20030;-73
2022/05/16 02:53:39;;;;;;;5.57;5.38;;;;;;;15.23;66.95;100851.56;5998685;23;20019;-74
2022/05/16 02:56:06;;;;;;;4.75;4.55;;;;;;;15.30;66.68;100865.22;6053001;23;20547;-73
2022/05/16 02:58:32;;;;;;;6.07;5.75;;;;;;;14.74;66.76;100784.44;6054435;23;20019;-73
2022/05/16 03:00:58;;;;;;;5.00;4.80;;;;;;;14.91;66.97;100804.44;6022501;23;20026;-73
2022/05/16 03:03:25;;;;;;;5.45;5.20;;;;;;;15.32;66.76;100860.66;6042974;23;20511;-71
2022/05/16 03:05:51;;;;;;;4.97;4.78;;;;;;;15.23;67.25;100856.00;6031094;23;20017;-72
2022/05/16 03:08:18;;;;;;;5.30;5.05;;;;;;;15.07;67.18;100837.72;6006037;23;20027;-72
2022/05/16 03:10:44;;;;;;;5.03;4.82;;;;;;;14.93;67.80;100817.53;6061887;23;20015;-73
2022/05/16 03:13:11;;;;;;;5.10;4.80;;;;;;;15.12;68.51;100849.66;6029379;23;20017;-72
2022/05/16 03:15:37;;;;;;;6.07;5.78;;;;;;;14.46;68.38;100739.69;6067453;23;20026;-71
2022/05/16 03:18:04;;;;;;;4.78;4.57;;;;;;;14.96;67.88;100831.38;6054565;23;20398;-74
2022/05/16 03:20:30;;;;;;;6.03;5.72;;;;;;;14.81;68.48;100813.91;6027035;23;20443;-72
2022/05/16 03:22:57;;;;;;;4.97;4.78;;;;;;;14.80;69.06;100827.25;6050242;23;20471;-71
2022/05/16 03:25:23;;;;;;;5.40;5.15;;;;;;;15.03;68.49;100850.28;6040457;23;20024;-72
2022/05/16 03:27:50;;;;;;;4.93;4.72;;;;;;;13.75;68.94;100636.22;6019576;23;20028;-72
2022/05/16 03:30:16;;;;;;;5.47;5.18;;;;;;;14.54;67.85;100766.44;6032855;23;20015;-72
2022/05/16 03:32:43;;;;;;;5.55;5.25;;;;;;;14.38;68.26;100755.22;6024858;23;20430;-70
2022/05/16 03:35:09;;;;;;;5.22;4.93;;;;;;;14.80;68.68;100808.75;6045678;23;20111;-71
2022/05/16 03:37:36;;;;;;;6.15;5.85;;;;;;;14.99;68.33;100863.81;6011439;23;20030;-74
2022/05/16 03:42:49;;;;;;;5.25;4.95;;;;;;;14.66;69.03;100797.31;6069040;23;20021;-74
2022/05/16 03:45:16;;;;;;;4.70;4.50;;;;;;;15.07;68.84;100843.84;6037230;23;20366;-73
2022/05/16 03:47:44;;;;;;;5.20;5.00;;;;;;;15.12;68.25;100846.19;6061903;23;20010;-73
2022/05/16 03:50:11;;;;;;;4.82;4.63;;;;;;;15.16;68.79;100850.31;6028596;23;20046;-72
2022/05/16 03:52:38;;;;;;;5.40;5.20;;;;;;;15.15;68.80;100854.75;6050707;23;20046;-73
2022/05/16 03:55:13;;;;;;;5.72;4.93;;;;;;;15.11;69.09;100847.13;6055403;23;20085;-74
2022/05/16 03:57:41;;;;;;;4.70;4.50;;;;;;;15.15;68.27;100848.59;6027733;23;20041;-71
2022/05/16 04:00:10;;;;;;;4.57;4.38;;;;;;;14.54;69.00;100746.13;6043922;23;20033;-71
2022/05/16 04:02:37;;;;;;;6.10;5.80;;;;;;;15.20;69.00;100841.22;6017932;23;20007;-71
2022/05/16 04:05:04;;;;;;;4.97;4.68;;;;;;;15.28;67.89;100840.69;6040758;23;20014;-71
2022/05/16 04:07:31;;;;;;;6.13;5.82;;;;;;;15.07;68.21;100793.63;6046847;23;20014;-72
2022/05/16 04:09:57;;;;;;;4.97;4.78;;;;;;;15.55;67.82;100838.75;6031304;23;20013;-71
2022/05/16 04:12:24;;;;;;;5.32;5.07;;;;;;;15.69;66.35;100837.75;6069477;23;20001;-74
2022/05/16 04:14:50;;;;;;;4.80;4.60;;;;;;;15.77;66.00;100824.00;6001121;23;20027;-73
2022/05/16 04:17:16;;;;;;;5.20;4.90;;;;;;;15.93;65.62;100816.63;6027164;23;20007;-71
2022/05/16 04:19:43;;;;;;;5.10;4.90;;;;;;;16.14;63.61;100785.09;5969366;23;20505;-73
2022/05/16 04:22:09;;;;;;;4.65;4.45;;;;;;;16.66;61.24;100790.09;6008070;23;20084;-73
2022/05/16 04:24:36;;;;;;;5.93;5.65;;;;;;;17.39;59.83;100849.84;5990798;23;20019;-74
2022/05/16 04:27:02;;;;;;;4.90;4.70;;;;;;;17.23;59.42;100788.38;6017036;23;20042;-74
2022/05/16 04:29:29;;;;;;;6.00;5.70;;;;;;;17.63;58.60;100836.47;5992677;23;20086;-72
2022/05/16 04:31:55;;;;;;;5.22;5.00;;;;;;;17.96;58.30;100834.75;6020297;23;20090;-73
2022/05/16 04:34:22;;;;;;;5.00;4.78;;;;;;;18.31;57.51;100833.66;6027001;23;20011;-71
2022/05/16 04:36:49;;;;;;;4.88;4.68;;;;;;;18.29;55.62;100770.03;5983773;23;20254;-72
2022/05/16 04:39:15;;;;;;;5.20;5.00;;;;;;;18.64;54.88;100800.78;6017136;23;20027;-74
2022/05/16 04:44:26;;;;;;;6.43;6.13;;;;;;;18.71;55.70;100828.50;5993984;23;20022;-74
2022/05/16 04:46:53;;;;;;;5.38;5.07;;;;;;;19.10;52.99;100807.50;6030189;23;20151;-73
2022/05/16 04:49:19;;;;;;;4.95;4.75;;;;;;;19.44;51.61;100764.63;5987099;23;20030;-71
2022/05/16 04:51:45;;;;;;;5.60;5.20;;;;;;;19.53;51.69;100802.91;6012422;23;20729;-72
2022/05/16 04:54:12;;;;;;;5.30;5.00;;;;;;;19.40;52.14;100791.66;5986363;23;20569;-73
2022/05/16 04:56:38;;;;;;;5.85;5.55;;;;;;;20.10;51.40;100833.31;6007844;23;20078;-73
2022/05/16 04:59:05;;;;;;;5.18;4.97;;;;;;;20.03;49.48;100741.63;5990475;23;20087;-74
2022/05/16 05:01:32;;;;;;;5.82;5.43;;;;;;;20.78;48.61;100815.66;6015406;23;20090;-74
2022/05/16 05:03:58;;;;;;;5.65;5.30;;;;;;;21.07;48.24;100839.59;6002297;23;20047;-73
2022/05/16 05:06:25;;;;;;;5.82;5.53;;;;;;;21.73;46.66;100846.66;6028206;23;20413;-73
2022/05/16 05:08:51;;;;;;;5.50;5.30;;;;;;;21.89;45.38;100856.69;6034843;23;20015;-74
2022/05/16 05:16:48;;;;;;;6.43;6.03;;;;;;;20.87;45.92;100783.63;6011337;23;20027;-73
2022/05/16 05:19:14;;;;;;;5.80;5.50;;;;;;;20.41;48.11;100848.38;6020339;23;20046;-72
2022/05/16 05:21:41;;;;;;;5.75;5.50;;;;;;;19.65;50.11;100851.56;5999101;23;20286;-73
2022/05/16 05:24:07;;;;;;;5.60;5.30;;;;;;;18.83;52.57;100809.88;6021141;23;20511;-73
2022/05/16 05:26:35;;;;;;;6.70;6.35;;;;;;;18.96;53.11;100858.38;5990735;23;20094;-72
2022/05/16 05:29:02;;;;;;;5.55;5.25;;;;;;;18.78;53.58;100835.97;6028890;23;20027;-72
2022/05/16 05:31:29;;;;;;;6.15;5.85;;;;;;;18.37;54.45;100800.44;6003453;23;20662;-72
2022/05/16 05:33:55;;;;;;;6.00;5.55;;;;;;;18.63;54.77;100854.91;5994550;23;20074;-74
2022/05/16 05:36:25;;;;;;;5.60;5.30;;;;;;;18.74;54.90;100852.19;6022327;23;20018;-71
2022/05/16 05:38:51;;;;;;;5.55;5.30;;;;;;;18.61;54.78;100824.94;5987565;23;20025;-72
2022/05/16 05:41:20;;;;;;;5.40;5.18;;;;;;;17.37;55.06;100618.34;6024422;23;20034;-74
2022/05/16 05:43:50;;;;;;;5.60;5.30;;;;;;;18.59;55.33;100842.84;6001029;23;20019;-73
2022/05/16 05:46:17;;;;;;;5.90;5.60;;;;;;;18.65;54.64;100862.75;5998706;23;20047;-72
2022/05/16 05:48:44;;;;;;;5.50;5.20;;;;;;;18.61;55.32;100870.13;6029497;23;20445;-72
2022/05/16 05:51:12;;;;;;;5.45;5.25;;;;;;;18.59;55.54;100892.50;5979817;23;20043;-72
2022/05/16 05:53:40;;;;;;;6.38;6.07;;;;;;;18.21;55.40;100796.41;6018664;23;20027;-70
2022/05/16 05:56:06;;;;;;;5.07;4.88;;;;;;;18.17;55.99;100812.72;6003561;23;20306;-72
2022/05/16 05:58:33;;;;;;;7.72;7.32;;;;;;;18.25;56.44;100842.16;6025396;23;20034;-72
2022/05/16 06:01:01;;;;;;;5.30;5.00;;;;;;;18.34;57.50;100871.47;6038459;23;20532;-71
2022/05/16 06:03:28;;;;;;;6.63;6.32;;;;;;;18.17;56.03;100818.88;6007515;23;20019;-71
2022/05/16 06:05:54;;;;;;;5.60;5.30;;;;;;;18.34;56.18;100870.59;6019061;23;20019;-73
2022/05/16 06:08:21;;;;;;;5.40;5.10;;;;;;;17.86;56.72;100791.31;5992054;23;20025;-71
2022/05/16 06:10:49;;;;;;;5.43;5.22;;;;;;;18.40;56.98;100879.88;6017132;23;20023;-72
2022/05/16 06:13:17;;;;;;;5.40;5.20;;;;;;;18.47;56.33;100873.94;5995189;23;20027;-71
2022/05/16 06:15:44;;;;;;;5.75;5.47;;;;;;;18.51;56.20;100879.84;6044290;23;20272;-71
2022/05/16 06:18:11;;;;;;;5.93;5.55;;;;;;;18.51;56.89;100891.31;6019479;23;20305;-71
2022/05/16 06:20:37;;;;;;;6.00;5.70;;;;;;;18.16;56.92;100833.09;6047486;23;20053;-71
2022/05/16 06:23:04;;;;;;;5.53;5.22;;;;;;;18.37;56.51;100845.59;6019481;23;20019;-71
2022/05/16 06:25:31;;;;;;;6.85;6.55;;;;;;;18.81;56.45;100902.22;6035307;23;20021;-70
2022/05/16 06:28:13;;;;;;;5.30;5.10;;;;;;;18.82;56.32;100896.78;6013086;23;20090;-71
2022/05/16 06:30:45;;;;;;;5.30;5.10;;;;;;;19.06;55.66;100893.00;6040076;23;20479;-69
2022/05/16 06:33:13;;;;;;;5.15;4.95;;;;;;;18.61;54.67;100832.94;6015359;23;20199;-70
2022/05/16 06:35:40;;;;;;;6.55;6.25;;;;;;;19.23;54.90;100907.56;6050412;23;20018;-70
2022/05/16 06:38:11;;;;;;;5.50;5.20;;;;;;;19.48;54.19;100907.13;6038095;23;20030;-72
2022/05/16 06:40:40;;;;;;;6.50;6.20;;;;;;;19.50;53.46;100867.91;5993489;23;20298;-71
2022/05/16 06:43:08;;;;;;;5.47;5.18;;;;;;;19.63;53.00;100865.00;6046875;23;20614;-71
2022/05/16 06:45:35;;;;;;;7.05;6.75;;;;;;;19.40;53.15;100867.00;6037120;23;20076;-72
2022/05/16 06:48:03;;;;;;;5.38;5.18;;;;;;;19.72;52.75;100921.97;6014663;23;20022;-71
2022/05/16 06:50:30;;;;;;;6.65;6.35;;;;;;;19.62;53.60;100929.03;6044762;23;20327;-70
2022/05/16 06:52:57;;;;;;;5.70;5.45;;;;;;;19.13;53.67;100847.13;6020439;23;20033;-70
2022/05/16 06:55:24;;;;;;;5.80;5.53;;;;;;;19.43;53.07;100900.53;6016434;23;20030;-70
2022/05/16 06:57:50;;;;;;;5.60;5.30;;;;;;;19.34;53.91;100936.72;6034442;23;20408;-68
2022/05/16 07:00:18;;;;;;;5.15;4.95;;;;;;;19.33;55.16;100940.38;6025038;23;20049;-70
2022/05/16 07:02:45;;;;;;;5.43;5.13;;;;;;;19.26;54.83;100937.41;6026486;23;20226;-70
2022/05/16 07:05:32;;;;;;;7.05;6.75;;;;;;;19.37;54.68;100946.28;6038985;23;20015;-70
2022/05/16 07:07:59;;;;;;;5.90;5.60;;;;;;;19.28;54.34;100958.53;6001603;23;20246;-73
2022/05/16 07:10:26;;;;;;;5.35;5.15;;;;;;;18.58;56.56;100866.88;6036032;23;20032;-70
2022/05/16 07:12:53;;;;;;;5.60;5.40;;;;;;;19.24;56.18;100962.44;6011811;23;20491;-69
2022/05/16 07:15:20;;;;;;;5.60;5.30;;;;;;;19.30;57.74;100959.25;6052159;23;20030;-70
2022/05/16 07:17:47;;;;;;;5.43;5.18;;;;;;;18.86;59.83;100881.41;6019834;23;20011;-70
2022/05/16 07:20:16;;;;;;;5.60;5.30;;;;;;;18.94;59.37;100897.56;6021665;23;20030;-70
2022/05/16 07:22:45;;;;;;;5.13;4.93;;;;;;;19.14;61.24;100965.03;6040647;23;20377;-70
2022/05/16 07:25:18;;;;;;;5.72;5.43;;;;;;;19.09;61.89;100983.22;6042612;23;20014;-70
2022/05/16 07:27:57;;;;;;;5.88;5.60;;;;;;;18.64;61.28;100917.75;6018713;23;20102;-70
2022/05/16 07:30:25;;;;;;;6.25;5.85;;;;;;;18.95;61.30;100973.72;6048718;23;20032;-72
2022/05/16 07:32:52;;;;;;;5.30;5.10;;;;;;;18.83;61.00;100972.09;6057837;23;20423;-70
2022/05/16 07:35:22;;;;;;;6.13;5.82;;;;;;;18.86;61.33;100970.03;6018695;23;20379;-73
2022/05/16 07:37:49;;;;;;;5.10;4.90;;;;;;;18.26;60.53;100911.09;6017754;23;20032;-69
2022/05/16 07:40:17;;;;;;;5.30;5.05;;;;;;;18.52;61.70;100972.75;6058767;23;20117;-70
2022/05/16 07:42:43;;;;;;;5.55;5.22;;;;;;;18.42;63.22;100976.25;5988953;23;20172;-69
2022/05/16 07:45:10;;;;;;;5.18;4.97;;;;;;;18.42;62.83;100960.31;6047540;23;20061;-69
2022/05/16 07:47:36;;;;;;;6.28;5.97;;;;;;;18.17;62.68;100927.78;6049844;23;20214;-69
2022/05/16 07:50:03;;;;;;;5.25;5.05;;;;;;;18.22;62.02;100940.69;6016405;23;20038;-69
2022/05/16 07:52:30;;;;;;;7.80;7.30;;;;;;;18.65;62.14;100999.16;6037804;23;20014;-70
2022/05/16 07:54:56;;;;;;;5.63;5.32;;;;;;;18.47;62.99;100958.16;6048238;23;20388;-69
2022/05/16 07:57:23;;;;;;;5.28;5.07;;;;;;;18.72;62.65;100979.09;6019712;23;20027;-71
2022/05/16 07:59:50;;;;;;;5.30;5.10;;;;;;;18.96;61.98;100996.66;6047258;23;20026;-71
2022/05/16 08:02:16;;;;;;;5.22;5.03;;;;;;;19.12;61.57;101014.88;6013094;23;20013;-71
2022/05/16 08:04:43;;;;;;;5.28;5.07;;;;;;;19.22;61.06;101009.63;6045065;23;20089;-71
2022/05/16 08:07:10;;;;;;;5.78;5.47;;;;;;;19.21;60.89;101015.94;6062995;23;20089;-71
2022/05/16 08:12:31;;;;;;;7.32;6.93;;;;;;;18.97;61.29;100995.72;6053402;23;20020;-72
2022/05/16 08:14:58;;;;;;;5.68;5.38;;;;;;;18.95;61.41;100980.88;6056858;23;20034;-72
2022/05/16 08:17:24;;;;;;;5.53;5.22;;;;;;;18.82;61.40;100981.03;6002762;23;20280;-71
2022/05/16 08:19:51;;;;;;;6.00;5.70;;;;;;;18.86;62.57;101015.22;6036784;23;20026;-71
2022/05/16 08:22:18;;;;;;;5.70;5.40;;;;;;;18.83;63.39;101012.81;6045078;23;20090;-71
2022/05/16 08:24:45;;;;;;;6.00;5.70;;;;;;;18.85;64.22;101020.66;6038521;23;20074;-72
2022/05/16 08:27:12;;;;;;;5.90;5.60;;;;;;;18.85;63.40;101041.94;6019044;23;20035;-71
2022/05/16 08:29:38;;;;;;;6.57;6.28;;;;;;;18.88;63.54;101012.41;6013006;23;20015;-70
2022/05/16 08:32:05;;;;;;;5.38;5.10;;;;;;;18.67;63.61;100962.66;6047820;23;20465;-70
2022/05/16 08:34:32;;;;;;;6.47;6.18;;;;;;;19.05;64.01;101005.72;6014687;23;20014;-70
2022/05/16 08:39:56;;;;;;;5.90;5.60;;;;;;;19.30;64.09;101025.78;6018891;23;20035;-70
2022/05/16 08:42:35;;;;;;;5.68;5.38;;;;;;;19.69;63.03;101018.91;6045232;23;20016;-71
2022/05/16 08:45:14;;;;;;;5.30;5.10;;;;;;;19.63;60.26;100952.03;6044804;23;20125;-71
2022/05/16 08:47:52;;;;;;;6.40;6.10;;;;;;;20.41;60.87;101032.31;6024545;23;20530;-70
2022/05/16 08:50:24;;;;;;;5.45;5.15;;;;;;;20.88;59.53;101028.06;6049070;23;20578;-71
2022/05/16 08:52:59;;;;;;;6.00;5.70;;;;;;;21.42;57.03;101020.44;6057889;23;20300;-70
2022/05/16 08:55:37;;;;;;;6.63;6.32;;;;;;;22.37;56.16;101010.66;6012663;23;20034;-70
2022/05/16 08:58:15;;;;;;;5.32;5.13;;;;;;;22.29;52.97;100957.03;6030564;23;20502;-70
2022/05/16 09:00:49;;;;;;;5.63;5.43;;;;;;;22.46;53.18;100987.50;6041449;23;20089;-73
2022/05/16 09:03:23;;;;;;;5.85;5.55;;;;;;;21.78;53.45;100884.44;6027249;23;20143;-70
2022/05/16 09:05:57;;;;;;;5.55;5.35;;;;;;;22.94;52.39;101015.75;6055207;23;20021;-70
2022/05/16 09:08:35;;;;;;;5.75;5.53;;;;;;;22.89;52.11;101005.50;6024986;23;20628;-70
2022/05/16 09:11:13;;;;;;;5.70;5.40;;;;;;;22.88;50.34;101011.84;6052492;23;20440;-71
2022/05/16 09:13:40;;;;;;;6.30;6.00;;;;;;;23.26;50.93;101009.84;6006691;23;20023;-71
2022/05/16 09:16:47;;;;;;;5.40;5.18;;;;;;;23.81;49.50;101002.53;6053164;23;20030;-71
2022/05/16 09:19:53;;;;;;;5.95;5.65;;;;;;;24.09;47.90;100998.69;6062220;23;20028;-71
2022/05/16 09:22:38;;;;;;;6.15;5.85;;;;;;;24.21;48.48;101006.41;6013239;23;20086;-70
2022/05/16 09:25:15;;;;;;;5.70;5.40;;;;;;;24.79;47.11;100991.34;6042225;23;20041;-70
2022/05/16 09:30:30;;;;;;;7.18;6.78;;;;;;;23.93;45.99;100861.88;6042320;23;20030;-70
2022/05/16 09:33:02;;;;;;;5.90;5.60;;;;;;;24.95;45.08;100982.47;6042177;23;20021;-71
2022/05/16 09:35:37;;;;;;;6.22;5.93;;;;;;;25.12;44.58;100991.34;6019524;23;20008;-70
2022/05/16 09:38:05;;;;;;;5.78;5.47;;;;;;;25.17;45.51;100991.69;6029821;23;20018;-72
2022/05/16 09:40:37;;;;;;;6.97;6.68;;;;;;;24.96;44.93;101019.06;6027160;23;20570;-71
2022/05/16 09:43:06;;;;;;;5.65;5.35;;;;;;;25.21;44.95;100998.41;6025922;23;20011;-73
2022/05/16 09:45:35;;;;;;;7.03;6.72;;;;;;;25.12;45.60;100999.41;6028795;23;20443;-73
2022/05/16 09:48:18;;;;;;;5.53;5.22;;;;;;;25.03;45.24;100937.63;6064684;23;20496;-71
2022/05/16 09:51:03;;;;;;;9.82;5.65;;;;;;;25.39;44.16;100952.56;6013904;23;20027;-71
2022/05/16 09:53:35;;;;;;;7.10;6.70;;;;;;;25.46;41.88;100962.47;6045549;23;20006;-72
2022/05/16 09:56:05;;;;;;;5.60;5.35;;;;;;;25.71;44.24;101002.72;6050913;23;20515;-72
2022/05/16 09:58:54;;;;;;;7.03;6.68;;;;;;;25.61;43.56;100994.00;6014015;23;20283;-73
2022/05/16 10:01:44;;;;;;;6.18;5.88;;;;;;;25.43;43.12;100948.53;6039249;23;20046;-71
2022/05/16 10:04:13;;;;;;;5.97;5.60;;;;;;;25.44;42.68;100936.78;6048121;23;20109;-71
2022/05/16 10:06:44;;;;;;;6.93;6.53;;;;;;;25.88;43.55;101001.69;6013763;23;20089;-70
2022/05/16 10:09:14;;;;;;;5.90;5.60;;;;;;;26.04;43.18;101000.81;6043293;23;20456;-70
2022/05/16 10:11:45;;;;;;;7.07;6.78;;;;;;;26.14;42.57;101006.00;6037338;23;20033;-70
2022/05/16 10:14:11;;;;;;;5.97;5.68;;;;;;;25.84;42.63;100925.06;6012155;23;20015;-70
2022/05/16 10:16:45;;;;;;;6.95;6.55;;;;;;;26.69;42.50;101000.69;6047175;23;20033;-70
2022/05/16 10:19:18;;;;;;;6.13;5.80;;;;;;;26.54;42.01;100938.63;6013832;23;20050;-70
2022/05/16 10:21:58;;;;;;;6.22;5.80;;;;;;;27.09;40.62;101002.22;6039739;23;20030;-72
2022/05/16 10:24:27;;;;;;;5.70;5.40;;;;;;;26.77;41.22;100930.59;6018255;23;20421;-71
2022/05/16 10:26:56;;;;;;;5.88;5.57;;;;;;;27.36;39.82;100995.44;6033053;23;20112;-72
2022/05/16 10:29:31;;;;;;;6.05;5.60;;;;;;;27.46;39.96;101000.56;6060200;23;20031;-70
2022/05/16 10:34:59;;;;;;;5.80;5.50;;;;;;;26.93;39.07;100916.16;6034925;23;20026;-71
2022/05/16 10:37:28;;;;;;;6.43;6.13;;;;;;;27.21;38.89;100962.22;6018089;23;20088;-75
2022/05/16 10:40:29;;;;;;;5.55;5.25;;;;;;;27.56;38.95;101001.13;6037832;23;20025;-71
2022/05/16 10:43:34;;;;;;;5.78;5.47;;;;;;;27.61;38.06;101001.41;6032998;23;20026;-70
2022/05/16 10:46:15;;;;;;;5.70;5.40;;;;;;;27.17;38.53;101001.31;6033060;23;20117;-71
2022/05/16 10:48:56;;;;;;;6.13;5.82;;;;;;;26.74;40.00;101003.66;6062626;23;20037;-71
2022/05/16 10:51:40;;;;;;;5.65;5.38;;;;;;;27.05;40.48;101004.44;6050298;23;20440;-71
2022/05/16 10:54:18;;;;;;;5.40;5.20;;;;;;;26.81;40.50;100951.59;6021714;23;20033;-71
2022/05/16 10:57:20;;;;;;;5.68;5.38;;;;;;;27.22;39.81;101005.16;6059738;23;20364;-71
2022/05/16 11:00:06;;;;;;;5.90;5.60;;;;;;;27.53;40.19;100997.97;5946563;23;20024;-70
2022/05/16 11:02:41;;;;;;;6.75;6.40;;;;;;;27.73;39.59;101001.81;6011731;23;20070;-71
2022/05/16 11:05:39;;;;;;;5.60;5.30;;;;;;;27.79;39.61;101001.06;6054778;23;20041;-72
2022/05/16 11:08:20;;;;;;;5.80;5.50;;;;;;;27.95;39.05;100994.66;6024365;23;20176;-71
2022/05/16 11:10:52;;;;;;;6.65;6.25;;;;;;;28.46;38.71;100999.22;6047238;23;20044;-71
2022/05/16 11:13:29;;;;;;;6.05;5.75;;;;;;;28.47;37.66;100995.50;6042650;23;20213;-71
2022/05/16 11:16:03;;;;;;;5.82;5.53;;;;;;;28.66;39.09;100975.16;6014421;23;20049;-72
2022/05/16 11:18:58;;;;;;;7.07;6.68;;;;;;;29.13;37.81;100998.09;6044440;23;20033;-71
2022/05/16 11:21:42;;;;;;;6.57;6.28;;;;;;;28.31;39.75;100998.44;6024220;23;20200;-73
2022/05/16 11:24:11;;;;;;;5.78;5.38;;;;;;;28.18;39.81;100994.53;6025423;23;20508;-71
2022/05/16 11:26:44;;;;;;;7.00;6.70;;;;;;;27.96;40.55;100976.59;6046854;23;20030;-71
2022/05/16 11:29:38;;;;;;;5.90;5.60;;;;;;;28.54;39.95;101007.22;6032215;23;20019;-71
2022/05/16 11:32:43;;;;;;;6.25;5.95;;;;;;;29.01;38.73;100992.34;6020396;23;20029;-70
2022/05/16 11:35:13;;;;;;;5.88;5.60;;;;;;;28.52;39.85;100959.84;6019479;23;20038;-73
2022/05/16 11:37:45;;;;;;;6.10;5.80;;;;;;;28.97;39.52;100999.16;6037211;23;20034;-71
2022/05/16 11:40:57;;;;;;;6.25;5.95;;;;;;;27.92;40.17;100976.13;6037685;23;20026;-70
2022/05/16 11:43:36;;;;;;;6.10;5.80;;;;;;;28.43;40.34;100999.63;6060055;23;20067;-71
2022/05/16 11:46:25;;;;;;;5.90;5.60;;;;;;;28.32;40.16;101005.50;6024391;23;20035;-71
2022/05/16 11:49:27;;;;;;;5.85;5.55;;;;;;;28.10;41.64;101007.31;6042194;23;20066;-71
2022/05/16 11:52:35;;;;;;;6.03;5.72;;;;;;;27.38;43.29;100998.81;6011641;23;20035;-70
2022/05/16 11:55:01;;;;;;;6.10;5.80;;;;;;;26.62;44.84;101000.53;6048391;23;20018;-71
2022/05/16 12:00:33;;;;;;;6.35;5.95;;;;;;;26.69;46.18;101006.06;6017884;23;20031;-72
2022/05/16 12:03:16;;;;;;;6.40;6.00;;;;;;;26.40;46.70;101005.69;6041213;23;20011;-71
2022/05/16 12:05:46;;;;;;;6.93;6.53;;;;;;;26.69;46.80;100997.97;6020480;23;20523;-70
2022/05/16 12:08:25;;;;;;;5.85;5.55;;;;;;;26.67;46.66;100990.91;6047947;23;20372;-70
2022/05/16 12:11:11;;;;;;;6.13;5.82;;;;;;;26.75;46.91;100991.88;6020386;23;20014;-71
2022/05/16 12:13:59;;;;;;;6.95;6.65;;;;;;;26.10;47.02;100839.72;6050345;23;20236;-71